createdAt,value
2023-01-29T00:00:31.080Z,73.5918
2023-01-29T00:02:30.623Z,73.09766
2023-01-29T00:04:30.634Z,72.98633
2023-01-29T00:06:31.101Z,72.97852
2023-01-29T00:08:30.595Z,72.5293
2023-01-29T00:10:30.637Z,72.90527
2023-01-29T00:13:45.872Z,72.85156
2023-01-29T00:15:45.969Z,72.7207
2023-01-29T00:17:45.826Z,72.73926
2023-01-29T00:19:45.771Z,72.2002
2023-01-29T00:21:45.934Z,72.58984
2023-01-29T00:23:45.775Z,72.56152
2023-01-29T00:25:45.705Z,73.27441
2023-01-29T00:28:15.686Z,73.45117
2023-01-29T00:30:16.687Z,73.09473
2023-01-29T00:32:16.104Z,73.38379
2023-01-29T00:34:15.867Z,73.72949
2023-01-29T00:36:15.849Z,73.91797
2023-01-29T00:38:15.678Z,73.74512
2023-01-29T00:40:16.719Z,73.78809
2023-01-29T00:43:27.979Z,73.85547
2023-01-29T00:45:27.936Z,73.79004
2023-01-29T00:47:27.913Z,73.85156
2023-01-29T00:49:27.991Z,73.75293
2023-01-29T00:51:27.946Z,73.23145
2023-01-29T00:53:28.091Z,73.68848
2023-01-29T00:55:27.909Z,73.41797
2023-01-29T00:58:40.401Z,73.93945
2023-01-29T01:00:40.576Z,74.12402
2023-01-29T01:02:40.346Z,73.98438
2023-01-29T01:04:40.268Z,74.09863
2023-01-29T01:06:40.316Z,73.85547
2023-01-29T01:08:40.354Z,73.64258
2023-01-29T01:10:40.497Z,73.32031
2023-01-29T01:13:42.729Z,73.51074
2023-01-29T01:15:43.017Z,73.41504
2023-01-29T01:17:42.839Z,73.60547
2023-01-29T01:19:42.689Z,74.12402
2023-01-29T01:21:42.638Z,73.38965
2023-01-29T01:23:42.623Z,74.12305
2023-01-29T01:25:42.781Z,73.58691
2023-01-29T01:27:42.756Z,73.31934
2023-01-29T01:29:29.768Z,73.42285
2023-01-29T01:31:29.944Z,73.11328
2023-01-29T01:33:29.682Z,73.4873
2023-01-29T01:35:29.730Z,73.35254
2023-01-29T01:37:30.014Z,73.82813
2023-01-29T01:39:29.941Z,74.07031
2023-01-29T01:41:29.719Z,73.72363
2023-01-29T01:44:24.262Z,73.08594
2023-01-29T01:46:24.787Z,73.46191
2023-01-29T01:48:24.449Z,73.7002
2023-01-29T01:50:24.349Z,74.09961
2023-01-29T01:52:24.288Z,74.22559
2023-01-29T01:54:24.417Z,74.10254
2023-01-29T01:56:24.338Z,74.1416
2023-01-29T01:59:28.468Z,73.92871
2023-01-29T02:01:28.757Z,73.43359
2023-01-29T02:03:28.642Z,73.8291
2023-01-29T02:05:28.589Z,73.99414
2023-01-29T02:07:28.796Z,74.08301
2023-01-29T02:09:28.501Z,74.8125
2023-01-29T02:11:28.409Z,74.70996
2023-01-29T02:14:18.678Z,75.44727
2023-01-29T02:16:18.578Z,75.41309
2023-01-29T02:18:18.503Z,75.42188
2023-01-29T02:20:19.315Z,75.0791
2023-01-29T02:22:18.440Z,74.7832
2023-01-29T02:24:18.646Z,74.50098
2023-01-29T02:26:18.409Z,75.03809
2023-01-29T02:28:18.442Z,75.49609
2023-01-29T02:30:09.718Z,75.09277
2023-01-29T02:32:09.689Z,75.04102
2023-01-29T02:34:09.741Z,74.98926
2023-01-29T02:36:09.747Z,74.99023
2023-01-29T02:38:09.689Z,74.62012
2023-01-29T02:40:09.706Z,74.41797
2023-01-29T02:42:09.709Z,74.46094
2023-01-29T02:44:36.573Z,74.84473
2023-01-29T02:46:36.451Z,74.46875
2023-01-29T02:48:36.637Z,74.55078
2023-01-29T02:50:36.662Z,74.7832
2023-01-29T02:52:36.586Z,75.02441
2023-01-29T02:54:36.626Z,74.85156
2023-01-29T02:56:36.500Z,74.73242
2023-01-29T02:58:36.569Z,74.8457
2023-01-29T03:00:09.962Z,74.82422
2023-01-29T03:02:09.082Z,75.21777
2023-01-29T03:04:09.015Z,74.28516
2023-01-29T03:06:09.065Z,74.33984
2023-01-29T03:08:08.958Z,74.48047
2023-01-29T03:10:08.886Z,74.55859
2023-01-29T03:12:08.903Z,74.65234
2023-01-29T03:15:28.135Z,73.84277
2023-01-29T03:17:28.506Z,74.59668
2023-01-29T03:19:28.316Z,75.29297
2023-01-29T03:21:31.242Z,75.50879
2023-01-29T03:23:28.301Z,74.91406
2023-01-29T03:25:28.554Z,74.58496
2023-01-29T03:27:28.233Z,73.72852
2023-01-29T03:30:59.404Z,73.98633
2023-01-29T03:32:59.302Z,74.56934
2023-01-29T03:34:59.348Z,74.375
2023-01-29T03:36:59.516Z,74.95313
2023-01-29T03:38:59.431Z,74.14648
2023-01-29T03:40:59.734Z,74.36914
2023-01-29T03:42:59.239Z,73.72949
2023-01-29T03:46:08.745Z,72.66309
2023-01-29T03:48:08.522Z,73.24512
2023-01-29T03:50:08.540Z,73.9375
2023-01-29T03:52:08.434Z,73.47559
2023-01-29T03:54:08.627Z,73.12793
2023-01-29T03:56:08.543Z,73.44922
2023-01-29T03:58:08.433Z,73.19043
2023-01-29T04:01:12.638Z,73.14844
2023-01-29T04:03:12.639Z,72.83301
2023-01-29T04:05:12.466Z,72.92676
2023-01-29T04:07:12.512Z,73.99707
2023-01-29T04:09:12.560Z,73.73633
2023-01-29T04:11:12.514Z,73.45996
2023-01-29T04:13:12.765Z,73.19922
2023-01-29T04:16:05.249Z,73.19336
2023-01-29T04:18:05.084Z,73.56445
2023-01-29T04:20:05.154Z,73.41113
2023-01-29T04:22:05.106Z,73.87207
2023-01-29T04:24:05.208Z,73.84961
2023-01-29T04:26:05.120Z,73.64355
2023-01-29T04:28:05.098Z,73.42383
2023-01-29T04:31:47.683Z,73.46582
2023-01-29T04:33:47.153Z,73.11133
2023-01-29T04:35:47.364Z,73.5459
2023-01-29T04:37:47.269Z,72.89844
2023-01-29T04:39:47.377Z,72.83203
2023-01-29T04:41:47.223Z,73.06348
2023-01-29T04:43:47.307Z,72.51563
2023-01-29T04:46:02.517Z,73.07422
2023-01-29T04:48:02.015Z,73.0957
2023-01-29T04:50:01.949Z,73.24609
2023-01-29T04:52:02.062Z,73.57129
2023-01-29T04:54:02.023Z,73.15918
2023-01-29T04:56:01.970Z,72.66211
2023-01-29T04:58:01.879Z,72.45117
2023-01-29T05:00:01.918Z,72.83887
2023-01-29T05:01:10.425Z,72.29297
2023-01-29T05:03:10.385Z,72.47754
2023-01-29T05:05:10.215Z,72.71191
2023-01-29T05:07:10.225Z,72.6582
2023-01-29T05:09:10.272Z,72.68555
2023-01-29T05:11:10.443Z,72.44824
2023-01-29T05:13:10.261Z,72.9707
2023-01-29T05:15:10.346Z,72.65332
2023-01-29T05:16:38.387Z,72.51563
2023-01-29T05:18:38.185Z,72.60156
2023-01-29T05:20:38.305Z,72.83105
2023-01-29T05:22:38.367Z,72.8291
2023-01-29T05:24:38.190Z,72.55469
2023-01-29T05:26:38.211Z,72.69043
2023-01-29T05:28:38.298Z,72.55176
2023-01-29T05:32:17.369Z,72.48242
2023-01-29T05:34:17.284Z,72.42871
2023-01-29T05:36:17.240Z,72.17383
2023-01-29T05:38:17.264Z,72.00684
2023-01-29T05:40:17.812Z,72.06543
2023-01-29T05:42:17.359Z,72.20801
2023-01-29T05:44:17.320Z,72.10059
2023-01-29T05:47:00.940Z,72.37109
2023-01-29T05:49:00.987Z,72.4668
2023-01-29T05:51:01.341Z,72.72754
2023-01-29T05:53:00.952Z,72.28906
2023-01-29T05:55:00.929Z,72.61621
2023-01-29T05:57:00.927Z,72.44727
2023-01-29T05:59:01.121Z,72.33691
2023-01-29T06:02:13.867Z,72.13281
2023-01-29T06:04:14.042Z,72.7373
2023-01-29T06:06:14.312Z,72.29688
2023-01-29T06:08:13.870Z,71.94336
2023-01-29T06:10:14.846Z,71.69824
2023-01-29T06:12:14.091Z,72.01074
2023-01-29T06:14:14.284Z,72.18457
2023-01-29T06:17:37.607Z,72.5498
2023-01-29T06:19:37.657Z,73.27051
2023-01-29T06:21:37.703Z,72.81445
2023-01-29T06:23:37.718Z,72.72266
2023-01-29T06:25:37.567Z,72.65625
2023-01-29T06:27:37.753Z,72.46777
2023-01-29T06:29:37.527Z,72.43848
2023-01-29T06:32:47.790Z,72.46191
2023-01-29T06:34:49.967Z,72.62793
2023-01-29T06:36:47.900Z,72.82227
2023-01-29T06:38:47.707Z,72.14746
2023-01-29T06:40:47.812Z,72.66211
2023-01-29T06:42:47.723Z,72.16602
2023-01-29T06:44:47.578Z,71.77051
2023-01-29T06:48:11.836Z,72.33984
2023-01-29T06:50:11.751Z,72.53906
2023-01-29T06:52:11.923Z,72.31055
2023-01-29T06:54:11.823Z,71.72168
2023-01-29T06:56:11.923Z,72.63867
2023-01-29T06:58:11.892Z,71.99121
2023-01-29T07:00:11.897Z,72.19434
2023-01-29T07:03:13.756Z,72.79297
2023-01-29T07:05:13.956Z,71.75391
2023-01-29T07:07:13.734Z,72.20215
2023-01-29T07:09:13.984Z,73.09863
2023-01-29T07:11:13.843Z,73.04785
2023-01-29T07:13:13.822Z,72.72461
2023-01-29T07:15:13.946Z,72.6377
2023-01-29T07:18:03.189Z,71.20313
2023-01-29T07:20:03.394Z,71.17871
2023-01-29T07:22:03.255Z,71.15137
2023-01-29T07:24:03.360Z,71.16309
2023-01-29T07:26:03.410Z,70.47949
2023-01-29T07:28:03.100Z,70.99609
2023-01-29T07:30:03.124Z,71.53223
2023-01-29T07:33:26.669Z,71.3584
2023-01-29T07:35:26.298Z,70.50488
2023-01-29T07:37:26.230Z,70.82422
2023-01-29T07:39:26.233Z,70.69141
2023-01-29T07:41:26.286Z,71.14746
2023-01-29T07:43:26.332Z,71.00098
2023-01-29T07:45:26.372Z,71.18848
2023-01-29T07:48:35.854Z,71.02148
2023-01-29T07:50:35.882Z,71.43945
2023-01-29T07:52:35.849Z,72.45898
2023-01-29T07:54:35.813Z,71.13184
2023-01-29T07:56:35.861Z,71.81348
2023-01-29T07:58:36.961Z,71.90332
2023-01-29T08:00:35.840Z,70.79004
2023-01-29T08:03:15.777Z,70.60156
2023-01-29T08:05:15.926Z,71.07813
2023-01-29T08:07:15.574Z,70.46094
2023-01-29T08:09:15.573Z,70.47754
2023-01-29T08:11:15.679Z,69.92188
2023-01-29T08:13:15.716Z,70.00195
2023-01-29T08:15:15.582Z,69.1123
2023-01-29T08:17:15.720Z,70.12305
2023-01-29T08:19:19.903Z,69.87305
2023-01-29T08:21:19.457Z,69.75098
2023-01-29T08:23:19.386Z,70.06934
2023-01-29T08:25:19.655Z,68.96973
2023-01-29T08:27:19.456Z,69.20703
2023-01-29T08:29:19.455Z,69.44531
2023-01-29T08:31:19.376Z,69.27246
2023-01-29T08:33:42.330Z,69.60352
2023-01-29T08:35:42.721Z,69.90625
2023-01-29T08:37:42.305Z,69.48828
2023-01-29T08:41:42.299Z,69.22949
2023-01-29T08:43:42.323Z,69.16504
2023-01-29T08:45:42.417Z,69.55859
2023-01-29T08:49:10.263Z,68.30469
2023-01-29T08:51:10.341Z,67.79102
2023-01-29T08:53:10.424Z,68.38184
2023-01-29T08:55:10.324Z,68.83691
2023-01-29T08:57:10.251Z,69
2023-01-29T08:59:10.286Z,68.52539
2023-01-29T09:01:10.511Z,69.18555
2023-01-29T09:04:17.693Z,68.96777
2023-01-29T09:06:17.453Z,68.46973
2023-01-29T09:08:17.427Z,68.6377
2023-01-29T09:10:17.743Z,67.00977
2023-01-29T09:12:17.523Z,68.35547
2023-01-29T09:14:17.565Z,67.95996
2023-01-29T09:16:17.619Z,67.39258
2023-01-29T09:19:14.691Z,67.36914
2023-01-29T09:21:14.739Z,68.70996
2023-01-29T09:23:14.705Z,68.93652
2023-01-29T09:25:15.875Z,69.29395
2023-01-29T09:27:14.792Z,69.64844
2023-01-29T09:29:14.713Z,68.82129
2023-01-29T09:31:15.017Z,69.09473
2023-01-29T09:34:23.307Z,68.29688
2023-01-29T09:36:23.188Z,69.56641
2023-01-29T09:38:23.222Z,69.43652
2023-01-29T09:40:23.243Z,69.93164
2023-01-29T09:42:23.175Z,71.42285
2023-01-29T09:44:23.187Z,71.96777
2023-01-29T09:46:23.412Z,71.10742
2023-01-29T09:50:05.804Z,69.85645
2023-01-29T09:52:05.910Z,70.5625
2023-01-29T09:54:05.786Z,71.53711
2023-01-29T09:56:05.820Z,69.5166
2023-01-29T09:58:05.766Z,70.85645
2023-01-29T10:00:05.759Z,70.9248
2023-01-29T10:02:06.185Z,70.56738
2023-01-29T10:04:47.494Z,69.68555
2023-01-29T10:06:47.406Z,70.11914
2023-01-29T10:08:47.382Z,69.23145
2023-01-29T10:10:47.317Z,70.04199
2023-01-29T10:12:47.268Z,69.00781
2023-01-29T10:14:47.368Z,71.0459
2023-01-29T10:16:47.603Z,70.12109
2023-01-29T10:20:25.298Z,69.86523
2023-01-29T10:22:25.129Z,69.82813
2023-01-29T10:24:25.141Z,70.14648
2023-01-29T10:26:25.293Z,69.86035
2023-01-29T10:28:25.432Z,70.11133
2023-01-29T10:30:25.143Z,70.20801
2023-01-29T10:32:25.205Z,69.58398
2023-01-29T10:35:06.526Z,69.56836
2023-01-29T10:37:06.440Z,70.35645
2023-01-29T10:39:06.524Z,70.4043
2023-01-29T10:41:06.465Z,68.94336
2023-01-29T10:43:06.471Z,69.80859
2023-01-29T10:45:06.514Z,69.29492
2023-01-29T10:47:06.505Z,69.46875
2023-01-29T10:50:06.513Z,69.51465
2023-01-29T10:52:06.447Z,69.2666
2023-01-29T10:54:06.435Z,69.25391
2023-01-29T10:56:22.597Z,68.91602
2023-01-29T10:58:06.533Z,70.23828
2023-01-29T11:00:06.440Z,69.91504
2023-01-29T11:02:06.488Z,70.01074
2023-01-29T11:04:06.594Z,69.99707
2023-01-29T11:05:50.084Z,70.15234
2023-01-29T11:07:49.982Z,70.9502
2023-01-29T11:09:50.283Z,71.6084
2023-01-29T11:11:49.977Z,71.95215
2023-01-29T11:13:50.155Z,71.89551
2023-01-29T11:15:50.017Z,71.21484
2023-01-29T11:17:50.248Z,70.875
2023-01-29T11:21:02.078Z,72.13477
2023-01-29T11:23:01.772Z,71.06348
2023-01-29T11:25:01.763Z,70.81348
2023-01-29T11:27:01.637Z,72.64453
2023-01-29T11:29:01.691Z,72.55371
2023-01-29T11:31:01.926Z,71.73145
2023-01-29T11:33:01.597Z,71.04297
2023-01-29T11:35:28.835Z,70.6543
2023-01-29T11:37:28.735Z,70.94629
2023-01-29T11:39:28.785Z,70.75879
2023-01-29T11:41:28.729Z,71.82129
2023-01-29T11:43:28.799Z,71.36426
2023-01-29T11:45:28.788Z,70.83691
2023-01-29T11:47:28.861Z,71.59473
2023-01-29T11:49:28.781Z,71.5752
2023-01-29T11:51:06.829Z,71.42383
2023-01-29T11:53:06.383Z,71.41113
2023-01-29T11:55:06.415Z,71.89355
2023-01-29T11:57:06.355Z,71.63086
2023-01-29T11:59:06.373Z,71.59961
2023-01-29T12:01:06.388Z,72.05664
2023-01-29T12:03:06.363Z,72.07715
2023-01-29T12:06:36.243Z,71.19824
2023-01-29T12:08:36.194Z,70.85938
2023-01-29T12:10:36.205Z,70.38672
2023-01-29T12:12:36.217Z,71.31348
2023-01-29T12:14:36.247Z,70.45898
2023-01-29T12:16:36.291Z,70.53613
2023-01-29T12:18:36.150Z,71.47559
2023-01-29T12:21:37.736Z,71.19043
2023-01-29T12:23:37.748Z,71.19922
2023-01-29T12:25:37.748Z,71.51758
2023-01-29T12:27:37.715Z,70.87988
2023-01-29T12:29:38.712Z,70.75586
2023-01-29T12:31:37.842Z,71.18359
2023-01-29T12:33:37.724Z,70.58301
2023-01-29T12:36:48.596Z,70.15137
2023-01-29T12:38:48.571Z,69.78516
2023-01-29T12:40:48.597Z,70.30176
2023-01-29T12:42:48.607Z,69.95703
2023-01-29T12:44:48.609Z,69.76758
2023-01-29T12:46:48.837Z,70.42578
2023-01-29T12:48:48.650Z,70.08496
2023-01-29T12:52:06.419Z,70.48047
2023-01-29T12:54:06.507Z,70.75293
2023-01-29T12:56:06.427Z,70.02734
2023-01-29T12:58:06.447Z,69.41406
2023-01-29T13:00:06.415Z,68.94629
2023-01-29T13:02:06.490Z,69.22949
2023-01-29T13:04:06.446Z,68.60156
2023-01-29T13:06:33.793Z,69.60645
2023-01-29T13:08:33.764Z,69.41504
2023-01-29T13:10:34.223Z,69.5459
2023-01-29T13:12:34.225Z,69.63867
2023-01-29T13:14:33.764Z,69.77344
2023-01-29T13:16:33.960Z,69.58984
2023-01-29T13:18:34.299Z,69.01074
2023-01-29T13:21:39.935Z,68.6543
2023-01-29T13:23:39.994Z,68.99805
2023-01-29T13:25:39.896Z,67.8584
2023-01-29T13:27:40.385Z,68.16309
2023-01-29T13:29:40.143Z,68.24902
2023-01-29T13:31:40.162Z,69.2002
2023-01-29T13:33:40.205Z,69.08105
2023-01-29T13:35:40.036Z,69.24512
2023-01-29T13:37:20.631Z,69.37305
2023-01-29T13:39:20.731Z,69.43164
2023-01-29T13:41:20.765Z,69.35352
2023-01-29T13:43:20.971Z,68.90332
2023-01-29T13:45:20.739Z,67.97949
2023-01-29T13:47:20.826Z,67.6748
2023-01-29T13:49:20.949Z,68.41113
2023-01-29T13:52:39.638Z,68.66113
2023-01-29T13:54:39.653Z,68.27832
2023-01-29T13:56:39.454Z,67.74121
2023-01-29T13:58:39.434Z,67.55957
2023-01-29T14:00:39.537Z,67.31738
2023-01-29T14:02:39.560Z,67.33789
2023-01-29T14:04:39.571Z,68.58789
2023-01-29T14:07:29.371Z,68.0459
2023-01-29T14:09:29.254Z,68.32031
2023-01-29T14:11:29.311Z,68.21387
2023-01-29T14:13:29.249Z,68.92578
2023-01-29T14:15:29.245Z,68.61914
2023-01-29T14:17:29.304Z,68.55078
2023-01-29T14:19:29.253Z,68.95898
2023-01-29T14:22:46.938Z,68.74023
2023-01-29T14:24:46.918Z,68.32422
2023-01-29T14:26:46.996Z,67.62207
2023-01-29T14:28:46.884Z,69.34473
2023-01-29T14:30:47.166Z,68.8877
2023-01-29T14:32:46.934Z,68.84766
2023-01-29T14:34:47.403Z,69.31348
2023-01-29T14:37:51.626Z,68.83301
2023-01-29T14:39:51.811Z,70.25586
2023-01-29T14:41:51.619Z,69.8252
2023-01-29T14:43:51.610Z,69.34766
2023-01-29T14:45:51.801Z,69.79199
2023-01-29T14:47:51.612Z,70.15332
2023-01-29T14:49:51.719Z,69.16016
2023-01-29T14:52:37.986Z,69.50586
2023-01-29T14:54:37.942Z,69.7832
2023-01-29T14:56:38.563Z,70.16016
2023-01-29T14:58:38.154Z,70.27148
2023-01-29T15:00:38.056Z,70.32422
2023-01-29T15:02:38.165Z,70.9209
2023-01-29T15:04:37.919Z,70.92676
2023-01-29T15:06:38.023Z,70.37402
2023-01-29T15:07:46.357Z,70.77148
2023-01-29T15:09:46.359Z,71.00879
2023-01-29T15:11:46.385Z,70.81055
2023-01-29T15:13:46.358Z,70.98535
2023-01-29T15:15:46.448Z,70.41699
2023-01-29T15:17:46.382Z,70.79785
2023-01-29T15:19:46.361Z,70.62402
2023-01-29T15:21:46.418Z,71.08984
2023-01-29T15:23:44.946Z,70.91602
2023-01-29T15:25:44.878Z,70.89551
2023-01-29T15:27:45.267Z,70.9834
2023-01-29T15:29:45.180Z,70.81738
2023-01-29T15:31:48.000Z,71.03906
2023-01-29T15:33:45.137Z,70.73535
2023-01-29T15:35:45.165Z,71.0918
2023-01-29T15:38:55.011Z,70.32227
2023-01-29T15:40:54.995Z,70.46582
2023-01-29T15:42:54.934Z,69.93555
2023-01-29T15:44:54.939Z,69.7998
2023-01-29T15:46:54.911Z,70.25684
2023-01-29T15:48:54.896Z,70.28516
2023-01-29T15:50:54.957Z,71.03516
2023-01-29T15:53:46.006Z,70.70508
2023-01-29T15:55:45.967Z,70.14551
2023-01-29T15:57:46.025Z,70.49707
2023-01-29T15:59:46.102Z,70.49219
2023-01-29T16:01:45.958Z,70.48047
2023-01-29T16:03:45.773Z,70.04492
2023-01-29T16:05:45.772Z,70.08301
2023-01-29T16:08:40.016Z,69.70508
2023-01-29T16:10:39.945Z,70.46973
2023-01-29T16:12:39.926Z,70.15918
2023-01-29T16:14:39.972Z,70.07227
2023-01-29T16:16:40.065Z,69.67676
2023-01-29T16:18:59.438Z,69.9873
2023-01-29T16:20:40.039Z,69.63672
2023-01-29T16:23:56.804Z,69.17578
2023-01-29T16:25:56.783Z,68.81738
2023-01-29T16:27:56.884Z,69.01465
2023-01-29T16:29:57.263Z,69.36621
2023-01-29T16:31:56.938Z,70.70508
2023-01-29T16:33:56.725Z,69.59863
2023-01-29T16:35:56.752Z,69.47559
2023-01-29T16:39:31.459Z,70.06445
2023-01-29T16:41:31.372Z,70.40332
2023-01-29T16:43:42.384Z,70.63086
2023-01-29T16:45:31.500Z,70.27246
2023-01-29T16:47:31.436Z,70.37793
2023-01-29T16:49:31.420Z,69.93457
2023-01-29T16:51:31.519Z,70.58691
2023-01-29T16:54:37.058Z,70.43359
2023-01-29T16:56:37.084Z,70.14355
2023-01-29T16:58:37.139Z,69.81152
2023-01-29T17:00:37.130Z,69.79102
2023-01-29T17:02:37.124Z,69.69531
2023-01-29T17:04:37.178Z,70.15234
2023-01-29T17:06:37.102Z,70.31152
2023-01-29T17:09:44.009Z,70.64551
2023-01-29T17:11:44.217Z,71.51758
2023-01-29T17:13:44.412Z,71.67578
2023-01-29T17:15:44.199Z,71.23047
2023-01-29T17:17:44.670Z,71.09668
2023-01-29T17:19:44.437Z,71.04883
2023-01-29T17:21:44.067Z,71.37695
2023-01-29T17:24:41.180Z,71.12793
2023-01-29T17:26:41.418Z,71.60547
2023-01-29T17:28:41.222Z,71.3252
2023-01-29T17:30:41.390Z,71.10742
2023-01-29T17:32:47.690Z,71.22754
2023-01-29T17:34:41.202Z,71.78223
2023-01-29T17:36:41.201Z,72.17188
2023-01-29T17:40:13.544Z,72.05859
2023-01-29T17:42:13.412Z,71.65234
2023-01-29T17:44:13.596Z,71.7373
2023-01-29T17:46:13.707Z,70.97754
2023-01-29T17:48:13.550Z,71.70801
2023-01-29T17:50:13.422Z,71.28418
2023-01-29T17:52:13.675Z,70.79883
2023-01-29T17:54:47.720Z,71.32227
2023-01-29T17:56:47.858Z,71.28418
2023-01-29T17:58:47.872Z,70.90039
2023-01-29T18:00:47.725Z,70.39063
2023-01-29T18:02:47.901Z,70.30371
2023-01-29T18:04:47.633Z,70.3457
2023-01-29T18:06:47.797Z,69.62793
2023-01-29T18:10:25.944Z,69.99609
2023-01-29T18:12:26.024Z,70.41797
2023-01-29T18:14:26.573Z,70.18652
2023-01-29T18:16:26.291Z,70.55859
2023-01-29T18:18:25.906Z,70.38867
2023-01-29T18:20:25.985Z,70.45117
2023-01-29T18:22:26.132Z,71.07715
2023-01-29T18:25:35.576Z,70.28516
2023-01-29T18:27:35.581Z,70.36719
2023-01-29T18:29:35.519Z,71.32617
2023-01-29T18:31:35.669Z,70.05273
2023-01-29T18:33:35.610Z,69.97266
2023-01-29T18:35:35.534Z,70.92871
2023-01-29T18:37:35.543Z,70.52246
2023-01-29T18:40:06.989Z,70.75781
2023-01-29T18:42:06.977Z,70.83203
2023-01-29T18:44:06.997Z,71.37012
2023-01-29T18:46:07.288Z,71.35938
2023-01-29T18:48:07.036Z,71.68164
2023-01-29T18:50:06.951Z,71.16992
2023-01-29T18:52:06.969Z,71.4209
2023-01-29T18:54:07.035Z,71.44141
2023-01-29T18:55:46.693Z,71.60059
2023-01-29T18:58:27.597Z,71.78125
2023-01-29T18:59:46.790Z,71.61035
2023-01-29T19:01:46.699Z,71.2168
2023-01-29T19:03:46.812Z,71.38086
2023-01-29T19:05:46.780Z,70.81543
2023-01-29T19:07:46.708Z,71.25684
2023-01-29T19:10:39.512Z,71.53027
2023-01-29T19:12:39.490Z,71.56543
2023-01-29T19:14:39.536Z,71.36133
2023-01-29T19:16:39.513Z,71.76074
2023-01-29T19:18:39.457Z,71.14453
2023-01-29T19:20:39.521Z,70.90625
2023-01-29T19:22:39.478Z,70.62207
2023-01-29T19:25:47.835Z,71.12891
2023-01-29T19:27:47.924Z,70.95313
2023-01-29T19:29:48.007Z,71.23828
2023-01-29T19:31:47.964Z,71.44336
2023-01-29T19:33:47.790Z,70.8584
2023-01-29T19:35:47.772Z,70.79004
2023-01-29T19:37:47.773Z,71.23535
2023-01-29T19:41:40.778Z,70.80176
2023-01-29T19:43:40.545Z,71.19141
2023-01-29T19:45:50.723Z,71.13477
2023-01-29T19:47:40.509Z,71.2998
2023-01-29T19:49:40.315Z,71.48828
2023-01-29T19:51:40.379Z,71.31836
2023-01-29T19:53:40.481Z,71.17285
2023-01-29T19:56:17.091Z,71.11621
2023-01-29T19:58:17.044Z,71.01953
2023-01-29T20:00:17.016Z,71.0332
2023-01-29T20:02:17.199Z,70.74902
2023-01-29T20:04:17.512Z,70.98145
2023-01-29T20:06:17.022Z,71.18066
2023-01-29T20:08:17.052Z,71.0166
2023-01-29T20:11:33.287Z,70.99121
2023-01-29T20:13:33.314Z,70.7207
2023-01-29T20:15:33.290Z,70.51465
2023-01-29T20:17:33.289Z,70.57129
2023-01-29T20:19:33.350Z,71.0332
2023-01-29T20:21:33.541Z,70.9834
2023-01-29T20:23:38.886Z,70.80762
2023-01-29T20:27:12.215Z,71.10059
2023-01-29T20:29:12.324Z,71.00293
2023-01-29T20:31:12.292Z,70.54199
2023-01-29T20:33:12.226Z,71.33301
2023-01-29T20:35:12.250Z,72.12891
2023-01-29T20:37:12.165Z,72.07617
2023-01-29T20:39:12.203Z,72.11621
2023-01-29T20:41:45.021Z,71.93555
2023-01-29T20:43:45.043Z,70.79492
2023-01-29T20:45:45.235Z,71.24902
2023-01-29T20:47:45.063Z,71.12012
2023-01-29T20:49:45.049Z,70.92773
2023-01-29T20:51:45.078Z,71.75293
2023-01-29T20:53:45.216Z,72.39063
2023-01-29T20:57:07.035Z,71.3623
2023-01-29T20:59:06.986Z,72.29883
2023-01-29T21:01:07.123Z,72.45898
2023-01-29T21:03:07.010Z,72.37109
2023-01-29T21:05:07.160Z,71.5332
2023-01-29T21:07:07.117Z,72.02441
2023-01-29T21:09:07.486Z,71.2334
2023-01-29T21:12:18.627Z,70.82227
2023-01-29T21:14:18.555Z,70.81055
2023-01-29T21:16:18.689Z,70.33105
2023-01-29T21:18:18.642Z,70.9248
2023-01-29T21:20:19.312Z,70.58691
2023-01-29T21:22:18.793Z,71.04785
2023-01-29T21:24:18.714Z,71.42383
2023-01-29T21:27:40.966Z,71.75684
2023-01-29T21:29:41.277Z,71.1709
2023-01-29T21:31:41.000Z,70.9707
2023-01-29T21:33:40.944Z,70.33105
2023-01-29T21:35:40.900Z,71.31641
2023-01-29T21:37:40.893Z,71.05859
2023-01-29T21:39:40.933Z,71.69434
2023-01-29T21:42:18.426Z,71.60059
2023-01-29T21:44:18.417Z,70.6543
2023-01-29T21:46:18.528Z,70.89551
2023-01-29T21:48:18.444Z,70.98828
2023-01-29T21:50:19.454Z,71.09668
2023-01-29T21:52:18.421Z,71.33984
2023-01-29T21:54:18.465Z,71.19922
2023-01-29T21:57:31.049Z,71.31348
2023-01-29T21:59:31.003Z,71.13379
2023-01-29T22:01:38.797Z,70.85547
2023-01-29T22:03:31.058Z,70.75293
2023-01-29T22:05:31.014Z,70.37793
2023-01-29T22:07:31.199Z,71.02539
2023-01-29T22:09:31.015Z,70.34473
2023-01-29T22:12:46.016Z,69.86426
2023-01-29T22:14:45.981Z,70.02051
2023-01-29T22:16:46.267Z,70.22168
2023-01-29T22:18:46.009Z,69.90332
2023-01-29T22:20:46.011Z,70.61621
2023-01-29T22:22:46.000Z,70.71289
2023-01-29T22:24:45.984Z,70.26855
2023-01-29T22:28:03.824Z,69.85449
2023-01-29T22:30:03.791Z,70.29102
2023-01-29T22:32:03.873Z,70.68457
2023-01-29T22:34:03.777Z,70.23047
2023-01-29T22:36:04.071Z,70.38672
2023-01-29T22:38:03.793Z,70.11328
2023-01-29T22:40:03.775Z,70.88281
2023-01-29T22:43:20.697Z,71.97168
2023-01-29T22:45:20.712Z,72.26465
2023-01-29T22:47:20.723Z,71.53125
2023-01-29T22:49:20.761Z,71.42285
2023-01-29T22:51:20.686Z,70.77148
2023-01-29T22:53:20.744Z,71.70508
2023-01-29T22:55:20.664Z,71.29102
2023-01-29T22:58:48.639Z,71.45996
2023-01-29T23:00:48.766Z,71.53418
2023-01-29T23:02:48.601Z,71.5166
2023-01-29T23:04:48.736Z,71.7002
2023-01-29T23:06:48.571Z,71.48926
2023-01-29T23:08:48.562Z,71.79395
2023-01-29T23:10:48.626Z,72.02832
2023-01-29T23:14:08.622Z,71.875
2023-01-29T23:16:08.832Z,71.7334
2023-01-29T23:18:08.820Z,71.39258
2023-01-29T23:20:08.759Z,70.71484
2023-01-29T23:22:08.788Z,71.01953
2023-01-29T23:24:08.751Z,70.6709
2023-01-29T23:26:08.601Z,70.37891
2023-01-29T23:28:27.289Z,71.08984
2023-01-29T23:30:27.555Z,71.11328
2023-01-29T23:32:27.243Z,71.12402
2023-01-29T23:34:27.278Z,71.10645
2023-01-29T23:36:27.297Z,69.57813
2023-01-29T23:38:27.254Z,70.80566
2023-01-29T23:40:27.283Z,70.91309
2023-01-29T23:42:27.314Z,70.375
2023-01-29T23:43:42.524Z,70.34473
2023-01-29T23:45:42.572Z,69.3877
2023-01-29T23:47:42.544Z,69.80859
2023-01-29T23:49:42.479Z,70.2959
2023-01-29T23:51:42.526Z,69.81543
2023-01-29T23:53:42.552Z,70.39746
2023-01-29T23:55:42.498Z,70.4082
2023-01-29T23:58:40.027Z,70.14258
